createdAt,value
2019-02-17T00:02:00.026Z,45.47
2019-02-17T00:04:40.966Z,45.70
2019-02-17T00:07:21.332Z,47.80
2019-02-17T00:10:02.349Z,48.00
2019-02-17T00:12:43.227Z,41.50
2019-02-17T00:15:23.890Z,47.33
2019-02-17T00:18:04.631Z,49.93
2019-02-17T00:23:28.126Z,43.83
2019-02-17T00:26:09.376Z,50.53
2019-02-17T00:28:59.100Z,46.77
2019-02-17T00:31:32.871Z,57.20
2019-02-17T00:34:13.849Z,52.03
2019-02-17T00:36:55.134Z,50.07
2019-02-17T00:39:36.010Z,48.37
2019-02-17T00:42:16.670Z,47.20
2019-02-17T00:44:57.330Z,53.93
2019-02-17T00:47:37.878Z,47.00
2019-02-17T00:50:18.629Z,49.93
2019-02-17T00:52:59.646Z,47.90
2019-02-17T00:55:40.693Z,46.23
2019-02-17T00:58:21.314Z,44.70
2019-02-17T01:01:01.879Z,62.73
2019-02-17T01:03:42.278Z,49.53
2019-02-17T01:06:22.774Z,49.53
2019-02-17T01:09:03.579Z,44.40
2019-02-17T01:11:44.646Z,53.37
2019-02-17T01:14:25.188Z,47.63
2019-02-17T01:17:05.595Z,54.30
2019-02-17T01:19:46.215Z,53.77
2019-02-17T01:22:27.151Z,58.07
2019-02-17T01:25:07.515Z,58.33
2019-02-17T01:27:48.119Z,58.30
2019-02-17T01:30:28.999Z,55.30
2019-02-17T01:33:08.096Z,58.37
2019-02-17T01:35:56.167Z,59.60
2019-02-17T01:38:44.307Z,57.10
2019-02-17T01:41:32.439Z,54.87
2019-02-17T01:44:20.530Z,56.47
2019-02-17T01:47:08.600Z,51.30
2019-02-17T01:49:49.818Z,56.97
2019-02-17T01:55:12.662Z,49.00
2019-02-17T01:57:53.636Z,51.97
2019-02-17T02:00:34.108Z,48.23
2019-02-17T02:03:14.658Z,59.00
2019-02-17T02:05:55.051Z,52.90
2019-02-17T02:08:35.599Z,52.23
2019-02-17T02:11:16.666Z,50.80
2019-02-17T02:14:00.572Z,45.17
2019-02-17T02:16:41.525Z,52.03
2019-02-17T02:19:22.151Z,48.33
2019-02-17T02:22:01.700Z,52.83
2019-02-17T02:24:49.771Z,48.47
2019-02-17T02:27:38.082Z,52.10
2019-02-17T02:30:26.152Z,51.17
2019-02-17T02:33:14.236Z,44.60
2019-02-17T02:36:02.291Z,49.47
2019-02-17T02:38:50.434Z,48.10
2019-02-17T02:41:38.509Z,54.33
2019-02-17T02:44:26.590Z,52.13
2019-02-17T02:47:14.732Z,38.83
2019-02-17T02:49:55.803Z,43.83
2019-02-17T02:52:36.539Z,50.63
2019-02-17T02:55:17.277Z,55.07
2019-02-17T02:57:58.078Z,48.50
2019-02-17T03:00:39.059Z,60.63
2019-02-17T03:03:20.299Z,50.80
2019-02-17T03:06:19.751Z,50.03
2019-02-17T03:09:00.450Z,53.60
2019-02-17T03:11:41.558Z,51.50
2019-02-17T03:14:22.663Z,55.43
2019-02-17T03:17:03.328Z,52.53
2019-02-17T03:19:44.065Z,52.67
2019-02-17T03:22:24.970Z,47.93
2019-02-17T03:25:05.997Z,52.83
2019-02-17T03:27:46.699Z,48.07
2019-02-17T03:30:27.392Z,49.57
2019-02-17T03:35:50.094Z,48.67
2019-02-17T03:41:12.560Z,55.10
2019-02-17T03:43:52.918Z,51.17
2019-02-17T03:46:36.788Z,52.97
2019-02-17T03:49:17.699Z,50.60
2019-02-17T03:51:58.647Z,49.73
2019-02-17T03:54:39.710Z,52.27
2019-02-17T03:57:20.442Z,49.37
2019-02-17T04:00:01.099Z,49.40
2019-02-17T04:02:42.013Z,54.50
2019-02-17T04:05:22.668Z,44.33
2019-02-17T04:08:03.534Z,51.73
2019-02-17T04:10:44.610Z,58.03
2019-02-17T04:13:25.865Z,55.67
2019-02-17T04:16:06.727Z,50.10
2019-02-17T04:18:48.003Z,53.63
2019-02-17T04:21:17.026Z,55.03
2019-02-17T04:24:05.168Z,54.93
2019-02-17T04:26:34.128Z,55.23
2019-02-17T04:29:22.202Z,52.20
2019-02-17T04:32:10.300Z,46.97
2019-02-17T04:34:58.382Z,47.33
2019-02-17T04:37:46.455Z,51.27
2019-02-17T04:40:34.597Z,45.93
2019-02-17T04:43:22.974Z,49.67
2019-02-17T04:46:11.287Z,48.00
2019-02-17T04:48:52.354Z,51.47
2019-02-17T04:51:33.389Z,51.20
2019-02-17T04:54:14.243Z,57.23
2019-02-17T04:56:55.038Z,49.57
2019-02-17T04:59:35.831Z,51.63
2019-02-17T05:02:16.927Z,46.20
2019-02-17T05:04:57.802Z,55.17
2019-02-17T05:07:38.671Z,45.50
2019-02-17T05:13:06.193Z,52.13
2019-02-17T05:15:46.776Z,48.13
2019-02-17T05:18:27.587Z,48.50
2019-02-17T05:21:08.192Z,52.57
2019-02-17T05:23:48.814Z,52.37
2019-02-17T05:26:30.712Z,48.23
2019-02-17T05:29:11.844Z,51.63
2019-02-17T05:31:52.889Z,48.93
2019-02-17T05:34:34.020Z,46.03
2019-02-17T05:37:03.071Z,47.73
2019-02-17T05:39:51.150Z,56.80
2019-02-17T05:42:39.562Z,50.30
2019-02-17T05:45:27.625Z,52.53
2019-02-17T05:48:09.111Z,48.67
2019-02-17T05:50:50.424Z,44.57
2019-02-17T05:56:17.223Z,44.67
2019-02-17T05:58:57.784Z,47.07
2019-02-17T06:01:38.559Z,51.97
2019-02-17T06:04:19.403Z,49.70
2019-02-17T06:07:00.163Z,49.20
2019-02-17T06:12:30.192Z,48.03
2019-02-17T06:15:11.100Z,56.30
2019-02-17T06:17:51.754Z,60.20
2019-02-17T06:20:32.118Z,56.17
2019-02-17T06:23:13.030Z,58.97
2019-02-17T06:25:53.720Z,55.03
2019-02-17T06:28:34.335Z,46.27
2019-02-17T06:31:15.035Z,55.57
2019-02-17T06:33:55.776Z,47.90
2019-02-17T06:36:36.361Z,51.73
2019-02-17T06:39:17.281Z,49.13
2019-02-17T06:41:58.107Z,55.53
2019-02-17T06:44:38.719Z,57.00
2019-02-17T06:47:26.379Z,51.83
2019-02-17T06:50:07.208Z,54.13
2019-02-17T06:52:48.043Z,57.17
2019-02-17T06:58:38.161Z,48.07
2019-02-17T07:01:24.535Z,44.03
2019-02-17T07:04:01.640Z,54.30
2019-02-17T07:06:45.758Z,45.97
2019-02-17T07:09:27.098Z,48.13
2019-02-17T07:12:08.118Z,45.73
2019-02-17T07:14:48.574Z,67.97
2019-02-17T07:17:28.971Z,55.10
2019-02-17T07:20:10.187Z,49.30
2019-02-17T07:22:50.637Z,58.73
2019-02-17T07:25:31.180Z,57.33
2019-02-17T07:28:11.863Z,52.27
2019-02-17T07:30:52.878Z,52.80
2019-02-17T07:33:33.439Z,52.30
2019-02-17T07:36:14.318Z,52.53
2019-02-17T07:38:54.949Z,52.00
2019-02-17T07:41:35.663Z,47.87
2019-02-17T07:44:16.330Z,54.00
2019-02-17T07:46:56.994Z,50.13
2019-02-17T07:49:38.042Z,47.10
2019-02-17T07:52:18.683Z,47.77
2019-02-17T07:54:59.522Z,49.77
2019-02-17T07:57:40.309Z,53.23
2019-02-17T08:00:21.134Z,48.53
2019-02-17T08:03:02.203Z,46.17
2019-02-17T08:05:42.578Z,47.23
2019-02-17T08:08:23.203Z,54.40
2019-02-17T08:11:04.426Z,52.93
2019-02-17T08:13:44.967Z,44.30
2019-02-17T08:16:25.926Z,47.70
2019-02-17T08:19:06.430Z,54.03
2019-02-17T08:21:47.038Z,49.77
2019-02-17T08:24:27.689Z,53.20
2019-02-17T08:27:08.439Z,50.17
2019-02-17T08:29:49.655Z,46.40
2019-02-17T08:32:30.167Z,48.03
2019-02-17T08:35:11.238Z,52.43
2019-02-17T08:37:51.878Z,45.87
2019-02-17T08:40:32.575Z,39.77
2019-02-17T08:43:13.361Z,42.63
2019-02-17T08:45:54.213Z,45.33
2019-02-17T08:48:35.010Z,35.23
2019-02-17T08:51:15.687Z,36.33
2019-02-17T08:53:56.179Z,32.87
2019-02-17T08:56:36.743Z,32.13
2019-02-17T09:02:06.521Z,25.17
2019-02-17T09:04:46.915Z,22.80
2019-02-17T09:07:27.639Z,19.67
2019-02-17T09:10:08.344Z,19.25
2019-02-17T09:12:49.103Z,19.48
2019-02-17T09:15:29.665Z,20.68
2019-02-17T09:18:10.973Z,19.35
2019-02-17T09:20:55.087Z,20.65
2019-02-17T09:23:34.295Z,16.42
2019-02-17T09:26:22.682Z,20.23
2019-02-17T09:29:10.814Z,20.08
2019-02-17T09:31:59.500Z,16.37
2019-02-17T09:34:48.681Z,17.12
2019-02-17T09:37:36.749Z,17.70
2019-02-17T09:40:24.818Z,16.10
2019-02-17T09:43:12.953Z,15.88
2019-02-17T09:46:01.102Z,14.95
2019-02-17T09:48:42.145Z,15.23
2019-02-17T09:51:11.477Z,15.20
2019-02-17T09:53:59.533Z,14.30
2019-02-17T09:56:28.738Z,13.40
2019-02-17T09:59:16.869Z,12.90
2019-02-17T10:02:05.015Z,12.63
2019-02-17T10:04:53.071Z,13.22
2019-02-17T10:07:41.224Z,12.75
2019-02-17T10:10:29.646Z,13.58
2019-02-17T10:13:17.708Z,11.78
2019-02-17T10:16:05.787Z,14.38
2019-02-17T10:18:54.171Z,13.28
2019-02-17T10:21:42.565Z,11.48
2019-02-17T10:24:30.635Z,12.43
2019-02-17T10:27:19.034Z,10.98
2019-02-17T10:30:08.378Z,10.38
2019-02-17T10:32:56.522Z,11.73
2019-02-17T10:35:44.671Z,10.45
2019-02-17T10:38:32.762Z,9.83
2019-02-17T10:41:20.911Z,10.00
2019-02-17T10:44:08.971Z,12.10
2019-02-17T10:46:57.111Z,9.03
2019-02-17T10:49:38.491Z,9.43
2019-02-17T10:52:19.516Z,8.95
2019-02-17T10:55:00.606Z,11.03
2019-02-17T10:57:41.199Z,9.28
2019-02-17T11:00:21.852Z,9.30
2019-02-17T11:03:02.499Z,9.45
2019-02-17T11:05:43.367Z,9.45
2019-02-17T11:08:24.035Z,9.13
2019-02-17T11:11:04.899Z,9.30
2019-02-17T11:13:33.778Z,9.38
2019-02-17T11:16:21.907Z,10.15
2019-02-17T11:19:09.974Z,8.90
2019-02-17T11:21:58.051Z,8.80
2019-02-17T11:24:46.208Z,9.33
2019-02-17T11:27:34.287Z,9.90
2019-02-17T11:30:22.427Z,9.45
2019-02-17T11:33:10.502Z,10.80
2019-02-17T11:35:58.858Z,9.80
2019-02-17T11:38:47.052Z,10.05
2019-02-17T11:41:35.147Z,8.53
2019-02-17T11:44:23.534Z,9.85
2019-02-17T11:47:11.601Z,9.18
2019-02-17T11:49:50.839Z,8.95
2019-02-17T11:52:38.970Z,8.75
2019-02-17T11:55:27.124Z,9.08
2019-02-17T11:58:15.291Z,10.60
2019-02-17T12:01:05.258Z,7.40
2019-02-17T12:03:53.169Z,9.10
2019-02-17T12:06:41.302Z,10.82
2019-02-17T12:09:29.463Z,11.20
2019-02-17T12:12:17.673Z,8.68
2019-02-17T12:15:06.107Z,7.03
2019-02-17T12:17:54.245Z,8.00
2019-02-17T12:21:01.354Z,7.17
2019-02-17T12:24:08.508Z,6.92
2019-02-17T12:27:15.707Z,7.60
2019-02-17T12:30:07.302Z,8.25
2019-02-17T12:32:55.372Z,9.10
2019-02-17T12:35:43.442Z,7.87
2019-02-17T12:38:31.607Z,9.65
2019-02-17T12:41:19.906Z,8.53
2019-02-17T12:44:07.995Z,8.30
2019-02-17T12:46:56.135Z,10.53
2019-02-17T12:49:37.074Z,7.15
2019-02-17T12:52:17.739Z,9.28
2019-02-17T12:54:58.626Z,8.20
2019-02-17T13:00:25.709Z,7.87
2019-02-17T13:03:06.443Z,8.63
2019-02-17T13:05:50.599Z,9.45
2019-02-17T13:14:00.174Z,7.33
2019-02-17T13:16:41.843Z,6.20
2019-02-17T13:19:23.049Z,6.72
2019-02-17T13:22:03.751Z,7.42
2019-02-17T13:24:44.474Z,6.17
2019-02-17T13:27:25.111Z,6.45
2019-02-17T13:30:05.711Z,7.62
2019-02-17T13:32:46.314Z,7.25
2019-02-17T13:35:27.291Z,7.97
2019-02-17T13:38:07.953Z,6.65
2019-02-17T13:40:48.968Z,7.28
2019-02-17T13:43:30.275Z,8.08
2019-02-17T13:46:12.214Z,7.37
2019-02-17T13:48:53.094Z,6.85
2019-02-17T13:51:33.699Z,9.73
2019-02-17T13:56:56.541Z,7.55
2019-02-17T13:59:37.615Z,8.45
2019-02-17T14:02:18.515Z,8.05
2019-02-17T14:04:59.220Z,8.93
2019-02-17T14:07:39.803Z,7.47
2019-02-17T14:10:20.159Z,7.20
2019-02-17T14:13:00.741Z,7.70
2019-02-17T14:15:41.130Z,8.15
2019-02-17T14:18:21.859Z,5.95
2019-02-17T14:21:03.222Z,5.05
2019-02-17T14:23:43.787Z,7.67
2019-02-17T14:26:24.679Z,7.58
2019-02-17T14:29:05.322Z,7.17
2019-02-17T14:31:45.978Z,7.42
2019-02-17T14:34:29.861Z,6.10
2019-02-17T14:37:13.272Z,10.48
2019-02-17T14:39:54.107Z,6.87
2019-02-17T14:42:34.858Z,5.78
2019-02-17T14:45:16.159Z,5.70
2019-02-17T14:47:57.871Z,4.90
2019-02-17T14:50:38.410Z,6.45
2019-02-17T14:53:19.107Z,6.65
2019-02-17T14:56:00.185Z,6.28
2019-02-17T14:58:40.580Z,6.25
2019-02-17T15:01:21.032Z,8.63
2019-02-17T15:04:08.371Z,10.85
2019-02-17T15:06:44.400Z,10.53
2019-02-17T15:09:25.048Z,6.70
2019-02-17T15:12:05.737Z,6.25
2019-02-17T15:14:46.866Z,6.92
2019-02-17T15:17:27.487Z,6.33
2019-02-17T15:20:08.189Z,7.40
2019-02-17T15:22:49.085Z,9.35
2019-02-17T15:25:30.522Z,6.85
2019-02-17T15:28:11.005Z,6.78
2019-02-17T15:33:34.839Z,7.22
2019-02-17T15:36:15.223Z,7.83
2019-02-17T15:38:56.453Z,8.58
2019-02-17T15:41:37.491Z,11.00
2019-02-17T15:44:18.791Z,13.03
2019-02-17T15:46:59.717Z,13.18
2019-02-17T15:49:40.090Z,10.60
2019-02-17T15:52:20.704Z,9.23
2019-02-17T15:57:44.530Z,8.70
2019-02-17T16:00:25.571Z,15.60
2019-02-17T16:03:06.101Z,11.57
2019-02-17T16:08:48.821Z,9.70
2019-02-17T16:11:29.242Z,6.83
2019-02-17T16:14:09.787Z,8.83
2019-02-17T16:16:50.693Z,9.13
2019-02-17T16:19:31.366Z,8.37
2019-02-17T16:22:12.305Z,9.00
2019-02-17T16:24:53.110Z,9.43
2019-02-17T16:27:33.481Z,8.57
2019-02-17T16:30:16.917Z,7.97
2019-02-17T16:32:57.284Z,9.73
2019-02-17T16:35:37.750Z,9.10
2019-02-17T16:38:18.611Z,11.67
2019-02-17T16:40:59.818Z,10.57
2019-02-17T16:46:26.209Z,8.67
2019-02-17T16:49:06.816Z,8.67
2019-02-17T16:51:47.689Z,10.57
2019-02-17T16:54:28.318Z,12.03
2019-02-17T16:57:08.954Z,12.80
2019-02-17T16:59:50.129Z,13.97
2019-02-17T17:02:31.297Z,11.33
2019-02-17T17:05:12.082Z,13.50
2019-02-17T17:07:52.708Z,13.10
2019-02-17T17:10:33.538Z,12.90
2019-02-17T17:13:14.345Z,13.60
2019-02-17T17:15:54.889Z,12.17
2019-02-17T17:18:35.765Z,16.27
2019-02-17T17:21:16.254Z,13.03
2019-02-17T17:23:56.996Z,12.43
2019-02-17T17:26:38.185Z,13.77
2019-02-17T17:29:18.863Z,15.40
2019-02-17T17:31:59.581Z,16.00
2019-02-17T17:34:40.206Z,15.10
2019-02-17T17:37:20.878Z,12.57
2019-02-17T17:40:01.714Z,16.00
2019-02-17T17:42:42.441Z,22.23
2019-02-17T17:45:23.409Z,23.13
2019-02-17T17:48:04.139Z,23.60
2019-02-17T17:50:45.037Z,23.13
2019-02-17T17:53:25.649Z,26.57
2019-02-17T17:56:06.325Z,20.87
2019-02-17T17:58:47.553Z,24.00
2019-02-17T18:01:28.349Z,59.97
2019-02-17T18:04:09.416Z,107.40
2019-02-17T18:06:50.113Z,314.97
2019-02-17T18:09:30.683Z,415.63
2019-02-17T18:12:11.237Z,482.93
2019-02-17T18:14:51.885Z,87.57
2019-02-17T18:17:32.509Z,45.00
2019-02-17T18:20:13.073Z,26.23
2019-02-17T18:22:53.630Z,20.90
2019-02-17T18:25:34.137Z,16.97
2019-02-17T18:28:14.632Z,20.73
2019-02-17T18:30:55.317Z,20.90
2019-02-17T18:33:36.425Z,14.13
2019-02-17T18:36:17.266Z,20.53
2019-02-17T18:38:58.009Z,19.00
2019-02-17T18:41:38.891Z,16.00
2019-02-17T18:44:19.581Z,13.93
2019-02-17T18:47:00.329Z,24.10
2019-02-17T18:49:40.826Z,13.60
2019-02-17T18:52:21.586Z,16.23
2019-02-17T18:55:02.083Z,19.37
2019-02-17T18:57:50.249Z,16.77
2019-02-17T19:00:25.807Z,23.03
2019-02-17T19:03:06.720Z,21.13
2019-02-17T19:05:47.669Z,22.17
2019-02-17T19:08:28.610Z,16.90
2019-02-17T19:11:10.337Z,29.60
2019-02-17T19:13:50.638Z,22.97
2019-02-17T19:16:31.274Z,28.83
2019-02-17T19:19:11.804Z,19.70
2019-02-17T19:21:52.390Z,16.30
2019-02-17T19:24:32.814Z,15.27
2019-02-17T19:27:13.525Z,16.17
2019-02-17T19:29:53.981Z,14.23
2019-02-17T19:32:34.973Z,13.53
2019-02-17T19:35:15.509Z,24.50
2019-02-17T19:37:54.689Z,25.50
2019-02-17T19:40:42.897Z,15.97
2019-02-17T19:43:31.145Z,13.73
2019-02-17T19:46:19.645Z,14.70
2019-02-17T19:49:07.797Z,15.57
2019-02-17T19:51:55.924Z,18.27
2019-02-17T19:54:44.078Z,19.67
2019-02-17T19:57:32.214Z,18.73
2019-02-17T20:00:20.375Z,22.93
2019-02-17T20:03:27.808Z,29.07
2019-02-17T20:06:18.113Z,32.80
2019-02-17T20:12:17.525Z,28.60
2019-02-17T20:15:05.977Z,22.37
2019-02-17T20:17:54.122Z,21.67
2019-02-17T20:20:42.253Z,22.30
2019-02-17T20:23:30.459Z,19.43
2019-02-17T20:26:18.749Z,17.73
2019-02-17T20:29:06.902Z,17.40
2019-02-17T20:31:55.072Z,17.60
2019-02-17T20:34:43.205Z,18.50
2019-02-17T20:37:12.170Z,18.80
2019-02-17T20:40:00.387Z,22.57
2019-02-17T20:42:48.462Z,24.27
2019-02-17T20:45:36.593Z,18.37
2019-02-17T20:48:24.824Z,17.73
2019-02-17T20:51:05.405Z,18.57
2019-02-17T20:53:46.041Z,18.70
2019-02-17T20:56:26.764Z,16.80
2019-02-17T20:59:07.562Z,20.40
2019-02-17T21:01:48.099Z,22.20
2019-02-17T21:04:28.614Z,18.87
2019-02-17T21:07:10.171Z,23.00
2019-02-17T21:09:51.254Z,22.47
2019-02-17T21:12:32.038Z,18.57
2019-02-17T21:15:13.085Z,20.80
2019-02-17T21:17:54.145Z,20.07
2019-02-17T21:20:35.519Z,19.13
2019-02-17T21:23:16.803Z,20.27
2019-02-17T21:25:57.391Z,20.97
2019-02-17T21:28:37.883Z,23.43
2019-02-17T21:31:18.341Z,18.80
2019-02-17T21:33:59.306Z,22.77
2019-02-17T21:36:39.755Z,21.80
2019-02-17T21:39:20.695Z,25.07
2019-02-17T21:42:02.155Z,19.40
2019-02-17T21:44:43.143Z,24.13
2019-02-17T21:50:22.787Z,21.47
2019-02-17T21:53:03.291Z,28.27
2019-02-17T21:55:44.142Z,24.43
2019-02-17T21:58:24.921Z,28.67
2019-02-17T22:01:06.040Z,26.93
2019-02-17T22:03:46.870Z,26.73
2019-02-17T22:06:33.604Z,25.97
2019-02-17T22:09:10.165Z,21.80
2019-02-17T22:11:50.941Z,27.93
2019-02-17T22:14:31.795Z,30.33
2019-02-17T22:17:12.617Z,26.03
2019-02-17T22:19:53.618Z,25.90
2019-02-17T22:22:34.173Z,27.03
2019-02-17T22:25:14.901Z,24.00
2019-02-17T22:27:55.578Z,27.63
2019-02-17T22:30:37.154Z,32.67
2019-02-17T22:33:17.950Z,26.53
2019-02-17T22:35:58.682Z,31.40
2019-02-17T22:38:39.278Z,30.87
2019-02-17T22:41:20.045Z,34.57
2019-02-17T22:44:00.933Z,30.57
2019-02-17T22:46:41.522Z,29.80
2019-02-17T22:49:22.250Z,31.27
2019-02-17T22:52:03.039Z,29.53
2019-02-17T22:54:43.955Z,30.13
2019-02-17T22:57:24.658Z,29.50
2019-02-17T23:00:05.656Z,31.53
2019-02-17T23:02:46.966Z,30.87
2019-02-17T23:05:27.581Z,38.43
2019-02-17T23:08:08.865Z,45.20
2019-02-17T23:10:37.874Z,41.20
2019-02-17T23:13:26.273Z,32.73
2019-02-17T23:16:14.405Z,31.57
2019-02-17T23:18:44.592Z,31.97
2019-02-17T23:21:33.474Z,35.77
2019-02-17T23:24:21.618Z,34.27
2019-02-17T23:27:09.749Z,28.03
2019-02-17T23:29:57.817Z,26.77
2019-02-17T23:32:45.885Z,24.30
2019-02-17T23:35:34.025Z,28.60
2019-02-17T23:38:22.193Z,30.27
2019-02-17T23:41:10.361Z,28.77
2019-02-17T23:43:58.749Z,24.13
2019-02-17T23:46:46.877Z,24.13
2019-02-17T23:49:35.262Z,32.47
2019-02-17T23:52:16.361Z,32.90
2019-02-17T23:54:57.046Z,27.27
2019-02-17T23:57:37.498Z,30.73
